createdAt,value
2023-04-16T00:01:01.297Z,31.52
2023-04-16T00:03:27.771Z,31.75
2023-04-16T00:05:55.909Z,30.90
2023-04-16T00:08:24.632Z,33.10
2023-04-16T00:10:52.618Z,32.42
2023-04-16T00:13:19.140Z,32.72
2023-04-16T00:15:45.707Z,31.95
2023-04-16T00:18:12.092Z,34.35
2023-04-16T00:20:38.502Z,35.28
2023-04-16T00:23:04.887Z,33.75
2023-04-16T00:25:31.270Z,35.72
2023-04-16T00:27:57.646Z,34.60
2023-04-16T00:30:24.064Z,35.38
2023-04-16T00:32:50.537Z,36.33
2023-04-16T00:35:16.978Z,34.95
2023-04-16T00:37:43.380Z,36.40
2023-04-16T00:40:10.101Z,35.70
2023-04-16T00:42:38.002Z,35.17
2023-04-16T00:45:05.540Z,35.33
2023-04-16T00:47:32.004Z,36.40
2023-04-16T00:49:58.427Z,36.97
2023-04-16T00:52:25.967Z,36.10
2023-04-16T00:54:52.647Z,34.63
2023-04-16T00:57:20.998Z,34.90
2023-04-16T00:59:47.520Z,36.63
2023-04-16T01:02:14.309Z,36.42
2023-04-16T01:04:40.791Z,35.38
2023-04-16T01:07:07.270Z,37.03
2023-04-16T01:09:33.654Z,33.92
2023-04-16T01:12:00.106Z,32.33
2023-04-16T01:14:26.524Z,35.33
2023-04-16T01:16:52.958Z,36.03
2023-04-16T01:19:19.338Z,37.30
2023-04-16T01:21:45.818Z,36.78
2023-04-16T01:24:12.205Z,37.05
2023-04-16T01:26:38.588Z,38.13
2023-04-16T01:29:05.087Z,38.00
2023-04-16T01:31:31.920Z,36.05
2023-04-16T01:33:58.328Z,38.95
2023-04-16T01:36:24.700Z,36.85
2023-04-16T01:38:51.069Z,36.33
2023-04-16T01:41:17.447Z,36.10
2023-04-16T01:43:43.846Z,35.10
2023-04-16T01:46:15.424Z,35.45
2023-04-16T01:48:41.869Z,34.55
2023-04-16T01:51:08.271Z,35.25
2023-04-16T01:53:36.950Z,32.95
2023-04-16T01:56:03.829Z,36.38
2023-04-16T01:58:32.537Z,39.65
2023-04-16T02:00:59.107Z,35.15
2023-04-16T02:03:25.783Z,35.55
2023-04-16T02:05:52.258Z,31.75
2023-04-16T02:08:18.636Z,36.50
2023-04-16T02:10:49.739Z,35.33
2023-04-16T02:13:16.633Z,41.15
2023-04-16T02:15:47.325Z,37.85
2023-04-16T02:18:13.925Z,37.67
2023-04-16T02:20:44.625Z,39.40
2023-04-16T02:23:11.827Z,38.83
2023-04-16T02:25:42.223Z,39.67
2023-04-16T02:28:09.828Z,42.70
2023-04-16T02:30:36.995Z,39.70
2023-04-16T02:33:05.455Z,42.42
2023-04-16T02:35:34.746Z,41.17
2023-04-16T02:38:01.568Z,42.53
2023-04-16T02:40:29.065Z,44.25
2023-04-16T02:42:55.712Z,42.47
2023-04-16T02:45:22.538Z,41.65
2023-04-16T02:47:49.296Z,42.65
2023-04-16T02:50:16.199Z,43.55
2023-04-16T02:52:42.701Z,41.25
2023-04-16T02:55:09.919Z,44.00
2023-04-16T02:57:36.488Z,42.10
2023-04-16T03:00:04.928Z,43.83
2023-04-16T03:02:31.413Z,39.58
2023-04-16T03:04:57.871Z,40.17
2023-04-16T03:07:24.527Z,42.40
2023-04-16T03:09:50.895Z,40.85
2023-04-16T03:12:17.264Z,42.70
2023-04-16T03:14:43.623Z,39.95
2023-04-16T03:17:09.999Z,38.47
2023-04-16T03:19:36.412Z,36.05
2023-04-16T03:22:02.806Z,39.90
2023-04-16T03:24:29.535Z,37.28
2023-04-16T03:26:57.906Z,38.00
2023-04-16T03:29:24.510Z,38.85
2023-04-16T03:31:50.886Z,37.88
2023-04-16T03:34:17.279Z,39.53
2023-04-16T03:36:43.665Z,37.88
2023-04-16T03:39:10.271Z,37.63
2023-04-16T03:41:36.805Z,40.08
2023-04-16T03:44:03.217Z,39.20
2023-04-16T03:46:29.646Z,43.88
2023-04-16T03:48:56.260Z,39.40
2023-04-16T03:51:22.644Z,43.88
2023-04-16T03:53:49.019Z,40.85
2023-04-16T03:56:15.420Z,42.22
2023-04-16T03:58:41.803Z,44.83
2023-04-16T04:01:08.183Z,42.03
2023-04-16T04:03:34.816Z,41.72
2023-04-16T04:06:01.357Z,41.17
2023-04-16T04:08:27.721Z,40.83
2023-04-16T04:10:54.107Z,40.35
2023-04-16T04:13:20.637Z,41.20
2023-04-16T04:15:47.012Z,38.95
2023-04-16T04:18:13.379Z,41.00
2023-04-16T04:20:41.076Z,42.17
2023-04-16T04:23:07.516Z,42.17
2023-04-16T04:25:33.920Z,41.80
2023-04-16T04:28:00.293Z,39.80
2023-04-16T04:30:26.726Z,40.75
2023-04-16T04:32:53.175Z,43.15
2023-04-16T04:35:19.654Z,43.30
2023-04-16T04:37:46.071Z,41.30
2023-04-16T04:40:12.529Z,41.33
2023-04-16T04:42:38.947Z,43.67
2023-04-16T04:45:05.852Z,43.70
2023-04-16T04:47:32.292Z,40.45
2023-04-16T04:49:58.752Z,41.22
2023-04-16T04:52:25.312Z,41.83
2023-04-16T04:54:52.710Z,41.03
2023-04-16T04:57:19.116Z,41.17
2023-04-16T04:59:45.621Z,41.78
2023-04-16T05:02:12.063Z,42.78
2023-04-16T05:04:38.504Z,38.72
2023-04-16T05:07:04.951Z,41.20
2023-04-16T05:09:31.666Z,41.08
2023-04-16T05:11:58.079Z,39.10
2023-04-16T05:14:24.490Z,41.22
2023-04-16T05:16:51.291Z,39.33
2023-04-16T05:19:17.842Z,38.58
2023-04-16T05:21:44.218Z,39.58
2023-04-16T05:24:10.827Z,39.92
2023-04-16T05:26:38.090Z,37.88
2023-04-16T05:29:04.543Z,40.70
2023-04-16T05:31:30.917Z,40.30
2023-04-16T05:33:57.301Z,39.33
2023-04-16T05:36:23.678Z,40.60
2023-04-16T05:38:50.100Z,36.80
2023-04-16T05:41:16.484Z,40.42
2023-04-16T05:43:42.864Z,37.42
2023-04-16T05:46:09.251Z,39.60
2023-04-16T05:48:35.665Z,38.70
2023-04-16T05:51:02.697Z,38.55
2023-04-16T05:53:29.136Z,37.45
2023-04-16T05:55:55.650Z,41.35
2023-04-16T05:58:22.094Z,37.80
2023-04-16T06:00:48.566Z,38.92
2023-04-16T06:03:15.135Z,39.47
2023-04-16T06:05:41.720Z,38.35
2023-04-16T06:08:08.200Z,39.78
2023-04-16T06:10:34.670Z,38.55
2023-04-16T06:13:01.069Z,37.20
2023-04-16T06:15:27.451Z,38.83
2023-04-16T06:17:54.466Z,37.83
2023-04-16T06:20:20.893Z,36.65
2023-04-16T06:22:47.309Z,36.50
2023-04-16T06:25:14.187Z,36.30
2023-04-16T06:27:41.212Z,37.47
2023-04-16T06:30:12.491Z,37.90
2023-04-16T06:32:39.090Z,38.50
2023-04-16T06:35:06.170Z,35.85
2023-04-16T06:37:32.583Z,37.65
2023-04-16T06:39:58.952Z,36.53
2023-04-16T06:42:25.404Z,35.50
2023-04-16T06:44:51.778Z,36.17
2023-04-16T06:47:18.194Z,34.70
2023-04-16T06:49:44.660Z,34.50
2023-04-16T06:52:11.667Z,35.92
2023-04-16T06:54:38.187Z,37.30
2023-04-16T06:57:04.572Z,39.45
2023-04-16T06:59:31.542Z,35.60
2023-04-16T07:01:58.075Z,37.78
2023-04-16T07:04:24.657Z,35.15
2023-04-16T07:06:51.227Z,37.13
2023-04-16T07:09:17.969Z,39.92
2023-04-16T07:11:44.595Z,36.83
2023-04-16T07:14:11.045Z,36.13
2023-04-16T07:16:37.822Z,38.65
2023-04-16T07:19:04.427Z,39.13
2023-04-16T07:21:31.677Z,39.08
2023-04-16T07:23:58.057Z,34.17
2023-04-16T07:26:24.457Z,37.40
2023-04-16T07:28:50.871Z,36.67
2023-04-16T07:31:17.478Z,34.15
2023-04-16T07:33:43.966Z,36.55
2023-04-16T07:36:10.944Z,37.03
2023-04-16T07:38:37.351Z,37.75
2023-04-16T07:41:03.770Z,37.35
2023-04-16T07:43:30.362Z,37.38
2023-04-16T07:45:56.916Z,35.88
2023-04-16T07:48:23.416Z,36.72
2023-04-16T07:50:50.319Z,37.28
2023-04-16T07:53:16.823Z,35.42
2023-04-16T07:55:43.565Z,38.38
2023-04-16T07:58:10.255Z,37.40
2023-04-16T08:00:36.907Z,35.85
2023-04-16T08:03:03.937Z,37.03
2023-04-16T08:05:30.435Z,38.22
2023-04-16T08:07:56.864Z,37.50
2023-04-16T08:10:23.299Z,33.50
2023-04-16T08:12:49.735Z,35.30
2023-04-16T08:15:16.411Z,37.22
2023-04-16T08:17:42.898Z,39.38
2023-04-16T08:20:12.178Z,37.33
2023-04-16T08:22:40.882Z,37.72
2023-04-16T08:25:07.906Z,37.88
2023-04-16T08:27:34.294Z,37.60
2023-04-16T08:30:00.760Z,37.35
2023-04-16T08:32:27.221Z,38.33
2023-04-16T08:34:53.659Z,37.15
2023-04-16T08:37:20.110Z,38.03
2023-04-16T08:39:46.485Z,39.13
2023-04-16T08:42:40.593Z,36.25
2023-04-16T08:45:09.067Z,36.30
2023-04-16T08:47:37.107Z,36.60
2023-04-16T08:50:04.994Z,37.28
2023-04-16T08:52:31.954Z,36.42
2023-04-16T08:55:06.699Z,38.92
2023-04-16T08:57:53.725Z,35.58
2023-04-16T09:00:21.167Z,35.35
2023-04-16T09:02:47.953Z,36.75
2023-04-16T09:05:18.956Z,35.10
2023-04-16T09:07:46.431Z,35.65
2023-04-16T09:10:14.698Z,35.13
2023-04-16T09:12:44.563Z,34.50
2023-04-16T09:15:12.300Z,35.47
2023-04-16T09:17:39.509Z,34.65
2023-04-16T09:20:08.819Z,31.20
2023-04-16T09:22:36.266Z,34.70
2023-04-16T09:25:03.229Z,33.70
2023-04-16T09:27:30.811Z,32.67
2023-04-16T09:29:57.429Z,32.40
2023-04-16T09:32:28.222Z,34.67
2023-04-16T09:34:59.004Z,34.20
2023-04-16T09:37:26.611Z,33.03
2023-04-16T09:39:55.791Z,34.88
2023-04-16T09:42:33.199Z,33.97
2023-04-16T09:45:01.382Z,32.95
2023-04-16T09:47:43.968Z,31.60
2023-04-16T09:50:17.795Z,32.72
2023-04-16T09:52:50.478Z,30.23
2023-04-16T09:55:17.018Z,30.63
2023-04-16T09:57:43.395Z,31.02
2023-04-16T10:00:10.685Z,31.95
2023-04-16T10:02:41.481Z,31.05
2023-04-16T10:05:08.552Z,30.55
2023-04-16T10:07:36.138Z,29.00
2023-04-16T10:10:03.876Z,30.33
2023-04-16T10:12:32.527Z,29.08
2023-04-16T10:14:58.975Z,30.13
2023-04-16T10:17:26.596Z,29.23
2023-04-16T10:19:54.348Z,28.63
2023-04-16T10:22:20.942Z,29.23
2023-04-16T10:24:47.894Z,29.90
2023-04-16T10:27:14.345Z,30.13
2023-04-16T10:29:40.774Z,30.02
2023-04-16T10:32:07.700Z,28.67
2023-04-16T10:34:35.124Z,28.10
2023-04-16T10:37:01.606Z,28.77
2023-04-16T10:39:29.379Z,26.90
2023-04-16T10:42:08.011Z,25.67
2023-04-16T10:44:34.402Z,26.80
2023-04-16T10:47:00.901Z,28.15
2023-04-16T10:49:27.369Z,25.90
2023-04-16T10:52:03.580Z,24.40
2023-04-16T10:54:31.059Z,24.63
2023-04-16T10:56:59.218Z,25.92
2023-04-16T10:59:31.009Z,24.90
2023-04-16T11:01:59.682Z,26.38
2023-04-16T11:04:28.107Z,26.13
2023-04-16T11:07:13.936Z,26.13
2023-04-16T11:09:59.826Z,25.13
2023-04-16T11:12:33.576Z,24.65
2023-04-16T11:15:02.756Z,26.25
2023-04-16T11:17:51.495Z,24.30
2023-04-16T11:20:22.977Z,25.17
2023-04-16T11:22:50.568Z,23.45
2023-04-16T11:25:24.684Z,23.92
2023-04-16T11:27:51.964Z,23.75
2023-04-16T11:30:19.556Z,22.27
2023-04-16T11:32:45.973Z,23.48
2023-04-16T11:35:19.110Z,21.48
2023-04-16T11:37:46.491Z,20.48
2023-04-16T11:40:13.048Z,21.02
2023-04-16T11:42:40.812Z,24.02
2023-04-16T11:45:11.891Z,22.33
2023-04-16T11:47:46.975Z,23.48
2023-04-16T11:50:22.309Z,21.95
2023-04-16T11:52:49.929Z,21.58
2023-04-16T11:55:16.619Z,20.80
2023-04-16T11:57:43.097Z,21.88
2023-04-16T12:00:14.162Z,21.67
2023-04-16T12:02:51.577Z,23.35
2023-04-16T12:05:41.557Z,20.38
2023-04-16T12:08:10.503Z,20.30
2023-04-16T12:10:38.560Z,18.48
2023-04-16T12:13:16.277Z,18.42
2023-04-16T12:15:50.190Z,17.65
2023-04-16T12:18:17.336Z,15.23
2023-04-16T12:20:44.606Z,16.15
2023-04-16T12:23:21.995Z,15.25
2023-04-16T12:25:49.970Z,15.82
2023-04-16T12:28:29.858Z,17.50
2023-04-16T12:30:56.484Z,18.40
2023-04-16T12:33:22.950Z,19.77
2023-04-16T12:35:49.633Z,19.63
2023-04-16T12:38:16.816Z,20.30
2023-04-16T12:40:43.260Z,21.73
2023-04-16T12:43:10.440Z,19.40
2023-04-16T12:45:37.927Z,18.90
2023-04-16T12:48:04.374Z,20.10
2023-04-16T12:50:30.923Z,21.35
2023-04-16T12:52:57.698Z,19.77
2023-04-16T12:55:24.486Z,19.63
2023-04-16T12:57:52.638Z,20.30
2023-04-16T13:00:19.971Z,19.25
2023-04-16T13:02:46.818Z,20.23
2023-04-16T13:05:16.409Z,19.08
2023-04-16T13:07:43.066Z,22.30
2023-04-16T13:10:09.988Z,21.50
2023-04-16T13:12:36.534Z,20.33
2023-04-16T13:15:03.037Z,19.33
2023-04-16T13:17:29.504Z,18.70
2023-04-16T13:19:55.967Z,17.55
2023-04-16T13:22:22.540Z,18.05
2023-04-16T13:24:48.951Z,17.95
2023-04-16T13:27:16.803Z,16.92
2023-04-16T13:29:43.202Z,17.67
2023-04-16T13:32:09.659Z,16.67
2023-04-16T13:34:36.056Z,16.00
2023-04-16T13:37:02.461Z,14.27
2023-04-16T13:39:28.868Z,14.27
2023-04-16T13:41:55.297Z,15.05
2023-04-16T13:44:21.773Z,15.63
2023-04-16T13:46:48.212Z,14.65
2023-04-16T13:49:14.887Z,15.32
2023-04-16T13:51:44.597Z,15.27
2023-04-16T13:54:12.027Z,14.55
2023-04-16T13:56:38.659Z,14.65
2023-04-16T13:59:05.095Z,14.82
2023-04-16T14:01:31.465Z,17.33
2023-04-16T14:03:59.274Z,17.70
2023-04-16T14:06:25.878Z,16.88
2023-04-16T14:08:52.268Z,19.00
2023-04-16T14:11:18.702Z,18.52
2023-04-16T14:13:45.073Z,17.75
2023-04-16T14:16:11.666Z,18.23
2023-04-16T14:18:42.109Z,17.77
2023-04-16T14:21:08.896Z,17.02
2023-04-16T14:23:35.416Z,16.73
2023-04-16T14:26:01.870Z,17.88
2023-04-16T14:28:28.261Z,17.40
2023-04-16T14:30:54.635Z,18.02
2023-04-16T14:33:21.210Z,17.58
2023-04-16T14:35:50.169Z,17.77
2023-04-16T14:38:16.533Z,17.70
2023-04-16T14:40:42.904Z,17.63
2023-04-16T14:43:09.270Z,17.08
2023-04-16T14:45:38.906Z,16.90
2023-04-16T14:48:06.152Z,18.58
2023-04-16T14:50:37.842Z,18.80
2023-04-16T14:53:05.054Z,16.63
2023-04-16T14:55:32.045Z,17.15
2023-04-16T14:57:59.523Z,17.60
2023-04-16T15:00:26.130Z,18.20
2023-04-16T15:02:53.279Z,17.42
2023-04-16T15:05:19.773Z,17.70
2023-04-16T15:07:46.392Z,19.38
2023-04-16T15:10:13.032Z,16.30
2023-04-16T15:12:39.592Z,17.65
2023-04-16T15:15:07.248Z,20.52
2023-04-16T15:17:33.723Z,19.48
2023-04-16T15:20:00.591Z,19.65
2023-04-16T15:22:27.330Z,18.48
2023-04-16T15:24:54.091Z,16.50
2023-04-16T15:27:20.615Z,18.85
2023-04-16T15:29:49.225Z,18.58
2023-04-16T15:32:15.698Z,16.95
2023-04-16T15:34:42.121Z,16.75
2023-04-16T15:37:09.566Z,17.20
2023-04-16T15:39:35.955Z,19.45
2023-04-16T15:42:06.604Z,14.85
2023-04-16T15:44:34.147Z,17.03
2023-04-16T15:47:00.809Z,15.70
2023-04-16T15:49:27.253Z,15.13
2023-04-16T15:51:53.796Z,15.10
2023-04-16T15:54:20.296Z,15.70
2023-04-16T15:56:46.919Z,16.25
2023-04-16T15:59:13.517Z,16.58
2023-04-16T16:01:40.178Z,15.70
2023-04-16T16:04:07.944Z,15.40
2023-04-16T16:06:34.554Z,14.52
2023-04-16T16:09:01.640Z,16.60
2023-04-16T16:11:28.098Z,16.40
2023-04-16T16:13:54.727Z,14.77
2023-04-16T16:16:21.818Z,17.40
2023-04-16T16:18:48.642Z,15.43
2023-04-16T16:21:15.034Z,15.63
2023-04-16T16:23:41.412Z,15.25
2023-04-16T16:26:07.812Z,14.63
2023-04-16T16:28:37.517Z,14.55
2023-04-16T16:31:07.289Z,15.25
2023-04-16T16:33:33.724Z,14.73
2023-04-16T16:36:00.151Z,14.40
2023-04-16T16:38:26.985Z,14.70
2023-04-16T16:40:53.377Z,14.05
2023-04-16T16:43:20.222Z,15.40
2023-04-16T16:45:47.172Z,13.73
2023-04-16T16:48:13.579Z,14.63
2023-04-16T16:50:40.276Z,14.95
2023-04-16T16:53:06.713Z,12.77
2023-04-16T16:55:33.192Z,15.65
2023-04-16T16:57:59.696Z,15.30
2023-04-16T17:00:26.141Z,15.35
2023-04-16T17:02:52.871Z,15.10
2023-04-16T17:05:19.782Z,14.05
2023-04-16T17:07:46.254Z,14.18
2023-04-16T17:10:15.828Z,14.25
2023-04-16T17:12:42.239Z,13.82
2023-04-16T17:15:09.186Z,13.48
2023-04-16T17:17:35.810Z,14.85
2023-04-16T17:20:08.047Z,14.98
2023-04-16T17:22:34.496Z,14.25
2023-04-16T17:25:00.969Z,14.88
2023-04-16T17:27:29.256Z,14.38
2023-04-16T17:29:59.950Z,14.63
2023-04-16T17:32:26.666Z,15.15
2023-04-16T17:34:55.369Z,15.45
2023-04-16T17:37:22.719Z,15.43
2023-04-16T17:39:49.427Z,14.77
2023-04-16T17:42:15.871Z,15.57
2023-04-16T17:44:42.309Z,16.23
2023-04-16T17:47:08.704Z,16.92
2023-04-16T17:49:35.119Z,16.60
2023-04-16T17:52:01.518Z,16.70
2023-04-16T17:54:27.991Z,17.60
2023-04-16T17:56:54.407Z,16.73
2023-04-16T17:59:20.799Z,16.45
2023-04-16T18:01:49.367Z,17.20
2023-04-16T18:04:16.381Z,16.90
2023-04-16T18:06:43.156Z,17.00
2023-04-16T18:09:09.534Z,16.92
2023-04-16T18:11:36.172Z,17.08
2023-04-16T18:14:02.552Z,17.70
2023-04-16T18:16:28.983Z,18.45
2023-04-16T18:18:55.391Z,17.08
2023-04-16T18:21:21.985Z,17.33
2023-04-16T18:23:48.364Z,17.73
2023-04-16T18:26:18.368Z,16.83
2023-04-16T18:28:47.184Z,16.75
2023-04-16T18:31:13.797Z,17.40
2023-04-16T18:33:55.528Z,17.30
2023-04-16T18:36:23.511Z,16.92
2023-04-16T18:39:00.071Z,16.65
2023-04-16T18:41:28.432Z,17.80
2023-04-16T18:43:54.901Z,18.25
2023-04-16T18:46:21.382Z,17.58
2023-04-16T18:48:47.788Z,18.65
2023-04-16T18:51:16.101Z,17.70
2023-04-16T18:53:44.168Z,17.55
2023-04-16T18:56:11.036Z,17.92
2023-04-16T18:58:37.865Z,18.15
2023-04-16T19:01:04.857Z,16.90
2023-04-16T19:03:32.207Z,16.65
2023-04-16T19:05:58.747Z,17.15
2023-04-16T19:08:25.249Z,17.95
2023-04-16T19:10:51.702Z,17.48
2023-04-16T19:13:18.078Z,18.42
2023-04-16T19:15:44.478Z,18.92
2023-04-16T19:18:10.832Z,18.40
2023-04-16T19:20:37.536Z,18.20
2023-04-16T19:23:09.173Z,20.98
2023-04-16T19:25:39.002Z,21.40
2023-04-16T19:28:05.517Z,20.75
2023-04-16T19:30:31.966Z,22.40
2023-04-16T19:32:58.386Z,23.52
2023-04-16T19:35:25.359Z,21.45
2023-04-16T19:37:51.735Z,23.30
2023-04-16T19:40:18.135Z,22.70
2023-04-16T19:42:45.293Z,23.38
2023-04-16T19:45:11.851Z,25.08
2023-04-16T19:47:38.344Z,26.17
2023-04-16T19:50:05.087Z,26.83
2023-04-16T19:52:37.153Z,26.73
2023-04-16T19:55:03.687Z,28.85
2023-04-16T19:57:30.063Z,27.25
2023-04-16T19:59:57.017Z,27.95
2023-04-16T20:02:23.575Z,26.52
2023-04-16T20:04:50.706Z,27.42
2023-04-16T20:07:17.418Z,27.77
2023-04-16T20:09:43.828Z,28.50
2023-04-16T20:12:10.373Z,27.23
2023-04-16T20:14:36.840Z,29.20
2023-04-16T20:17:03.472Z,28.50
2023-04-16T20:19:33.273Z,31.58
2023-04-16T20:21:59.637Z,30.35
2023-04-16T20:24:26.486Z,29.77
2023-04-16T20:26:52.866Z,28.00
2023-04-16T20:29:19.328Z,28.88
2023-04-16T20:31:46.088Z,28.27
2023-04-16T20:34:12.835Z,29.65
2023-04-16T20:36:39.253Z,30.08
2023-04-16T20:39:07.253Z,29.70
2023-04-16T20:41:33.989Z,30.17
2023-04-16T20:44:05.292Z,29.67
2023-04-16T20:46:34.180Z,29.50
2023-04-16T20:49:03.267Z,28.58
2023-04-16T20:51:29.675Z,29.13
2023-04-16T20:53:56.235Z,30.25
2023-04-16T20:56:22.634Z,28.67
2023-04-16T20:58:49.032Z,30.08
2023-04-16T21:01:16.268Z,31.25
2023-04-16T21:03:42.941Z,31.48
2023-04-16T21:06:09.428Z,30.88
2023-04-16T21:08:35.795Z,31.13
2023-04-16T21:11:02.199Z,31.25
2023-04-16T21:13:28.576Z,30.35
2023-04-16T21:15:55.044Z,30.05
2023-04-16T21:18:21.525Z,30.80
2023-04-16T21:20:47.940Z,29.33
2023-04-16T21:23:14.349Z,30.27
2023-04-16T21:25:40.955Z,29.88
2023-04-16T21:28:07.354Z,31.23
2023-04-16T21:30:33.730Z,30.33
2023-04-16T21:33:00.282Z,33.67
2023-04-16T21:35:26.696Z,33.25
2023-04-16T21:37:53.144Z,34.70
2023-04-16T21:40:19.592Z,33.67
2023-04-16T21:42:45.965Z,33.92
2023-04-16T21:45:14.361Z,34.08
2023-04-16T21:47:40.792Z,33.90
2023-04-16T21:50:07.805Z,34.72
2023-04-16T21:52:40.025Z,34.92
2023-04-16T21:57:34.385Z,34.78
2023-04-16T22:00:00.868Z,32.92
2023-04-16T22:02:27.451Z,34.20
2023-04-16T22:04:54.075Z,33.78
2023-04-16T22:07:20.626Z,34.60
2023-04-16T22:09:47.074Z,34.88
2023-04-16T22:12:13.799Z,34.95
2023-04-16T22:14:46.300Z,33.92
2023-04-16T22:17:22.141Z,34.22
2023-04-16T22:19:49.241Z,35.00
2023-04-16T22:22:15.684Z,32.20
2023-04-16T22:24:42.312Z,35.08
2023-04-16T22:27:08.730Z,34.35
2023-04-16T22:29:35.255Z,34.20
2023-04-16T22:32:01.963Z,32.55
2023-04-16T22:34:28.383Z,33.30
2023-04-16T22:36:54.772Z,33.03
2023-04-16T22:39:21.401Z,32.53
2023-04-16T22:41:47.794Z,32.20
2023-04-16T22:44:14.192Z,31.90
2023-04-16T22:46:40.762Z,33.25
2023-04-16T22:49:07.147Z,32.30
2023-04-16T22:51:34.092Z,32.92
2023-04-16T22:54:00.542Z,31.45
2023-04-16T22:56:28.808Z,32.97
2023-04-16T22:58:55.395Z,35.08
2023-04-16T23:01:21.844Z,35.58
2023-04-16T23:03:48.392Z,34.85
2023-04-16T23:06:14.878Z,34.55
2023-04-16T23:08:41.262Z,38.33
2023-04-16T23:11:07.684Z,35.53
2023-04-16T23:13:34.046Z,38.33
2023-04-16T23:16:00.523Z,36.25
2023-04-16T23:18:27.034Z,39.22
2023-04-16T23:20:53.514Z,37.88
2023-04-16T23:23:19.961Z,38.80
2023-04-16T23:25:46.348Z,38.72
2023-04-16T23:28:12.733Z,39.72
2023-04-16T23:30:39.194Z,39.00
2023-04-16T23:33:05.608Z,38.05
2023-04-16T23:35:32.096Z,39.45
2023-04-16T23:37:58.557Z,39.50
2023-04-16T23:40:24.925Z,39.10
2023-04-16T23:42:51.288Z,40.28
2023-04-16T23:45:17.768Z,39.75
2023-04-16T23:47:44.641Z,39.53
2023-04-16T23:50:11.336Z,40.05
2023-04-16T23:52:37.712Z,40.97
2023-04-16T23:55:04.367Z,39.40
2023-04-16T23:57:30.887Z,38.28
2023-04-16T23:59:57.282Z,37.40
